BHS203 MYNN-KFLL
Flight info
| Callsign | BHS203 |
|---|---|
| Flight time | 0h 40m |
| Altitude | 28000 |
| Route | PEACH OLAHS3 |
| Aircraft | B737/M-SDE2E3FGHIRWXY/LB1 |
Departure
| Time | 2026-05-04 04:32 |
|---|---|
| Airport | Lynden Pindling International Airport (MYNN) |
Arrival
| Time | 2026-05-04 05:13 |
|---|---|
| Airport | Fort Lauderdale Hollywood International Airport (KFLL) |
| Time | Latitude | Longitude | Altitude | Speed | Heading |
|---|---|---|---|---|---|
| 2026-05-04 04:32 | 25.01703 | -77.43677 | 2860 ft | 194 kts | 137° |
| 2026-05-04 04:32 | 25.00652 | -77.42525 | 3168 ft | 230 kts | 137° |
| 2026-05-04 04:33 | 24.99478 | -77.41217 | 3738 ft | 245 kts | 135° |
| 2026-05-04 04:33 | 24.98630 | -77.39553 | 4483 ft | 256 kts | 103° |
| 2026-05-04 04:33 | 24.98679 | -77.37581 | 5207 ft | 270 kts | 74° |
| 2026-05-04 04:33 | 24.99648 | -77.35790 | 5827 ft | 284 kts | 43° |
| 2026-05-04 04:34 | 25.01239 | -77.34683 | 6771 ft | 286 kts | 17° |
| 2026-05-04 04:34 | 25.03230 | -77.34485 | 7754 ft | 287 kts | 346° |
| 2026-05-04 04:34 | 25.05016 | -77.35412 | 8708 ft | 286 kts | 318° |
| 2026-05-04 04:34 | 25.06478 | -77.36904 | 9713 ft | 289 kts | 311° |
| 2026-05-04 04:35 | 25.07894 | -77.38520 | 10518 ft | 300 kts | 310° |
| 2026-05-04 04:35 | 25.09410 | -77.40278 | 10870 ft | 326 kts | 310° |
| 2026-05-04 04:35 | 25.10998 | -77.42103 | 11107 ft | 352 kts | 311° |
| 2026-05-04 04:35 | 25.12741 | -77.44070 | 11689 ft | 364 kts | 311° |
| 2026-05-04 04:36 | 25.14544 | -77.46074 | 12423 ft | 370 kts | 311° |
| 2026-05-04 04:36 | 25.16375 | -77.48092 | 13227 ft | 374 kts | 311° |
| 2026-05-04 04:36 | 25.18232 | -77.50127 | 14034 ft | 377 kts | 311° |
| 2026-05-04 04:36 | 25.20119 | -77.52192 | 14793 ft | 379 kts | 311° |
| 2026-05-04 04:37 | 25.25513 | -77.58095 | 16950 ft | 384 kts | 311° |
| 2026-05-04 04:37 | 25.27411 | -77.60175 | 17703 ft | 385 kts | 311° |
| 2026-05-04 04:38 | 25.29320 | -77.62268 | 18424 ft | 387 kts | 310° |
| 2026-05-04 04:38 | 25.31301 | -77.64441 | 19070 ft | 389 kts | 310° |
| 2026-05-04 04:38 | 25.33227 | -77.66555 | 19689 ft | 391 kts | 310° |
| 2026-05-04 04:38 | 25.35164 | -77.68684 | 20260 ft | 394 kts | 310° |
| 2026-05-04 04:39 | 25.37117 | -77.70830 | 20799 ft | 398 kts | 310° |
| 2026-05-04 04:39 | 25.39084 | -77.72991 | 21414 ft | 398 kts | 310° |
| 2026-05-04 04:39 | 25.41047 | -77.75149 | 21893 ft | 396 kts | 309° |
| 2026-05-04 04:39 | 25.42751 | -77.77545 | 22023 ft | 392 kts | 295° |
| 2026-05-04 04:40 | 25.43777 | -77.80343 | 22044 ft | 396 kts | 282° |
| 2026-05-04 04:40 | 25.44209 | -77.82172 | 22044 ft | 402 kts | 281° |
| 2026-05-04 04:40 | 25.44837 | -77.85120 | 22040 ft | 410 kts | 280° |
| 2026-05-04 04:40 | 25.45479 | -77.88263 | 22038 ft | 418 kts | 280° |
| 2026-05-04 04:41 | 25.46130 | -77.91433 | 22033 ft | 424 kts | 280° |
| 2026-05-04 04:41 | 25.46802 | -77.94632 | 22032 ft | 430 kts | 281° |
| 2026-05-04 04:41 | 25.47503 | -77.97909 | 22029 ft | 434 kts | 281° |
| 2026-05-04 04:41 | 25.48203 | -78.01141 | 22016 ft | 431 kts | 281° |
| 2026-05-04 04:42 | 25.48906 | -78.04371 | 22019 ft | 430 kts | 281° |
| 2026-05-04 04:42 | 25.49608 | -78.07593 | 22022 ft | 430 kts | 281° |
| 2026-05-04 04:42 | 25.50307 | -78.10813 | 22025 ft | 430 kts | 281° |
| 2026-05-04 04:42 | 25.51005 | -78.14032 | 22024 ft | 430 kts | 281° |
| 2026-05-04 04:43 | 25.51702 | -78.17251 | 22023 ft | 430 kts | 281° |
| 2026-05-04 04:43 | 25.52400 | -78.20479 | 22024 ft | 431 kts | 281° |
| 2026-05-04 04:43 | 25.53106 | -78.23746 | 22020 ft | 431 kts | 281° |
| 2026-05-04 04:43 | 25.53804 | -78.26969 | 22026 ft | 431 kts | 281° |
| 2026-05-04 04:44 | 25.54495 | -78.30133 | 22021 ft | 431 kts | 281° |
| 2026-05-04 04:44 | 25.55210 | -78.33398 | 22023 ft | 431 kts | 281° |
| 2026-05-04 04:44 | 25.55907 | -78.36588 | 22023 ft | 431 kts | 281° |
| 2026-05-04 04:44 | 25.56612 | -78.39816 | 22024 ft | 431 kts | 281° |
| 2026-05-04 04:45 | 25.57322 | -78.43078 | 22022 ft | 430 kts | 281° |
| 2026-05-04 04:45 | 25.58023 | -78.46302 | 22020 ft | 430 kts | 281° |
| 2026-05-04 04:45 | 25.58724 | -78.49530 | 22022 ft | 430 kts | 281° |
| 2026-05-04 04:47 | 25.62863 | -78.68669 | 22020 ft | 427 kts | 281° |
| 2026-05-04 04:47 | 25.63538 | -78.71790 | 22003 ft | 404 kts | 281° |
| 2026-05-04 04:47 | 25.64173 | -78.74726 | 21998 ft | 380 kts | 280° |
| 2026-05-04 04:47 | 25.64379 | -78.75680 | 22002 ft | 373 kts | 280° |
| 2026-05-04 04:49 | 25.66274 | -78.84504 | 21760 ft | 335 kts | 280° |
| 2026-05-04 04:49 | 25.66824 | -78.87093 | 21109 ft | 344 kts | 280° |
| 2026-05-04 04:49 | 25.67377 | -78.89691 | 20352 ft | 350 kts | 280° |
| 2026-05-04 04:49 | 25.67940 | -78.92331 | 19545 ft | 354 kts | 280° |
| 2026-05-04 04:50 | 25.68511 | -78.95001 | 18751 ft | 357 kts | 281° |
| 2026-05-04 04:50 | 25.69087 | -78.97698 | 17926 ft | 360 kts | 281° |
| 2026-05-04 04:50 | 25.69664 | -79.00400 | 17041 ft | 362 kts | 281° |
| 2026-05-04 04:50 | 25.70244 | -79.03122 | 16183 ft | 363 kts | 281° |
| 2026-05-04 04:51 | 25.70825 | -79.05852 | 15344 ft | 365 kts | 281° |
| 2026-05-04 04:51 | 25.71409 | -79.08597 | 14541 ft | 365 kts | 281° |
| 2026-05-04 04:51 | 25.71992 | -79.11340 | 13828 ft | 364 kts | 281° |
| 2026-05-04 04:51 | 25.72578 | -79.14102 | 13061 ft | 362 kts | 281° |
| 2026-05-04 04:52 | 25.73153 | -79.16814 | 12318 ft | 360 kts | 281° |
| 2026-05-04 04:52 | 25.73723 | -79.19505 | 11585 ft | 357 kts | 281° |
| 2026-05-04 04:52 | 25.74289 | -79.22180 | 10879 ft | 355 kts | 281° |
| 2026-05-04 04:52 | 25.74849 | -79.24827 | 10438 ft | 346 kts | 281° |
| 2026-05-04 04:53 | 25.75386 | -79.27364 | 10299 ft | 335 kts | 281° |
| 2026-05-04 04:53 | 25.75962 | -79.29990 | 10230 ft | 364 kts | 283° |
| 2026-05-04 04:53 | 25.76671 | -79.32769 | 10143 ft | 383 kts | 284° |
| 2026-05-04 04:53 | 25.77420 | -79.35533 | 10041 ft | 386 kts | 285° |
| 2026-05-04 04:54 | 25.78150 | -79.38204 | 10005 ft | 386 kts | 285° |
| 2026-05-04 04:54 | 25.78709 | -79.40260 | 10006 ft | 385 kts | 285° |
| 2026-05-04 04:54 | 25.79476 | -79.43110 | 10002 ft | 385 kts | 285° |
| 2026-05-04 04:54 | 25.80244 | -79.45996 | 9998 ft | 385 kts | 285° |
| 2026-05-04 04:55 | 25.80999 | -79.48847 | 9995 ft | 384 kts | 284° |
| 2026-05-04 04:55 | 25.81770 | -79.51769 | 9998 ft | 384 kts | 284° |
| 2026-05-04 04:55 | 25.82561 | -79.54772 | 10002 ft | 384 kts | 284° |
| 2026-05-04 04:55 | 25.83318 | -79.57650 | 10005 ft | 382 kts | 284° |
| 2026-05-04 04:56 | 25.84061 | -79.60425 | 9902 ft | 366 kts | 286° |
| 2026-05-04 04:56 | 25.84963 | -79.63028 | 9430 ft | 355 kts | 291° |
| 2026-05-04 04:56 | 25.85948 | -79.65491 | 8999 ft | 343 kts | 294° |
| 2026-05-04 04:56 | 25.87000 | -79.67826 | 8580 ft | 334 kts | 295° |
| 2026-05-04 04:57 | 25.88024 | -79.70098 | 8159 ft | 325 kts | 294° |
| 2026-05-04 04:57 | 25.89007 | -79.72335 | 7751 ft | 320 kts | 294° |
| 2026-05-04 04:57 | 25.89969 | -79.74562 | 7351 ft | 318 kts | 294° |
| 2026-05-04 04:57 | 25.90929 | -79.76808 | 6940 ft | 318 kts | 294° |
| 2026-05-04 04:58 | 25.91872 | -79.79023 | 6549 ft | 316 kts | 294° |
| 2026-05-04 04:58 | 25.92801 | -79.81204 | 6147 ft | 309 kts | 294° |
| 2026-05-04 04:58 | 25.93693 | -79.83300 | 6026 ft | 293 kts | 294° |
| 2026-05-04 04:58 | 25.94539 | -79.85286 | 6000 ft | 276 kts | 293° |
| 2026-05-04 04:59 | 25.95342 | -79.87172 | 5991 ft | 261 kts | 293° |
| 2026-05-04 04:59 | 25.96113 | -79.88985 | 6004 ft | 258 kts | 293° |
| 2026-05-04 04:59 | 25.96879 | -79.90791 | 6025 ft | 259 kts | 293° |
| 2026-05-04 04:59 | 25.97497 | -79.92246 | 6029 ft | 261 kts | 293° |
| 2026-05-04 05:00 | 25.98226 | -79.93963 | 6021 ft | 263 kts | 293° |
| 2026-05-04 05:00 | 25.99038 | -79.95654 | 6011 ft | 266 kts | 303° |
| 2026-05-04 05:00 | 26.01477 | -79.98756 | 6025 ft | 267 kts | 310° |
| 2026-05-04 05:01 | 26.02762 | -80.00279 | 6062 ft | 265 kts | 310° |
| 2026-05-04 05:01 | 26.03998 | -80.01760 | 5961 ft | 254 kts | 310° |
| 2026-05-04 05:01 | 26.05172 | -80.03179 | 5998 ft | 242 kts | 309° |
| 2026-05-04 05:01 | 26.06299 | -80.04555 | 6016 ft | 240 kts | 309° |
| 2026-05-04 05:02 | 26.07421 | -80.05933 | 6036 ft | 241 kts | 309° |
| 2026-05-04 05:02 | 26.08520 | -80.07356 | 6007 ft | 240 kts | 296° |
| 2026-05-04 05:02 | 26.09123 | -80.09050 | 6021 ft | 239 kts | 297° |
| 2026-05-04 05:02 | 26.10315 | -80.10335 | 6062 ft | 241 kts | 321° |
| 2026-05-04 05:03 | 26.11622 | -80.11518 | 6034 ft | 243 kts | 315° |
| 2026-05-04 05:03 | 26.12819 | -80.12802 | 6028 ft | 243 kts | 311° |
| 2026-05-04 05:04 | 26.15085 | -80.17506 | 5988 ft | 237 kts | 269° |
| 2026-05-04 05:04 | 26.15088 | -80.19366 | 5820 ft | 239 kts | 268° |
| 2026-05-04 05:04 | 26.15079 | -80.21185 | 5652 ft | 235 kts | 268° |
| 2026-05-04 05:06 | 26.15095 | -80.33320 | 5009 ft | 228 kts | 268° |
| 2026-05-04 05:06 | 26.15099 | -80.34510 | 5008 ft | 227 kts | 268° |
| 2026-05-04 05:06 | 26.15032 | -80.36862 | 4695 ft | 237 kts | 265° |
| 2026-05-04 05:07 | 26.14967 | -80.38112 | 4389 ft | 240 kts | 262° |
| 2026-05-04 05:07 | 26.14326 | -80.39801 | 3918 ft | 243 kts | 229° |
| 2026-05-04 05:07 | 26.12911 | -80.40867 | 3477 ft | 249 kts | 201° |
| 2026-05-04 05:09 | 26.07732 | -80.29976 | 2886 ft | 190 kts | 93° |
| 2026-05-04 05:09 | 26.07737 | -80.28593 | 2825 ft | 167 kts | 93° |
| 2026-05-04 05:10 | 26.07737 | -80.27351 | 2740 ft | 156 kts | 93° |
| 2026-05-04 05:10 | 26.07737 | -80.26155 | 2596 ft | 156 kts | 93° |
| 2026-05-04 05:10 | 26.07734 | -80.24935 | 2218 ft | 157 kts | 93° |
| 2026-05-04 05:10 | 26.07731 | -80.23745 | 1905 ft | 150 kts | 93° |
| 2026-05-04 05:11 | 26.07726 | -80.22586 | 1832 ft | 161 kts | 93° |
| 2026-05-04 05:11 | 26.07718 | -80.21273 | 1869 ft | 171 kts | 92° |
| 2026-05-04 05:11 | 26.07715 | -80.20444 | 1710 ft | 165 kts | 93° |
| 2026-05-04 05:11 | 26.07705 | -80.19497 | 1377 ft | 165 kts | 94° |
| 2026-05-04 05:12 | 26.07675 | -80.18750 | 862 ft | 181 kts | 94° |
| 2026-05-04 05:12 | 26.07654 | -80.17941 | 598 ft | 175 kts | 91° |
| 2026-05-04 05:12 | 26.07682 | -80.16623 | 111 ft | 164 kts | 87° |
| 2026-05-04 05:12 | 26.07689 | -80.15495 | 16 ft | 137 kts | 89° |
| 2026-05-04 05:13 | 26.07685 | -80.14682 | 18 ft | 30 kts | 90° |
| 2026-05-04 05:13 | 26.07606 | -80.14545 | 17 ft | 20 kts | 118° |
| 2026-05-04 05:13 | 26.07559 | -80.14407 | 16 ft | 19 kts | 90° |
| 2026-05-04 05:13 | 26.07561 | -80.14274 | 16 ft | 18 kts | 93° |
| 2026-05-04 05:14 | 26.07557 | -80.14155 | 16 ft | 18 kts | 90° |
| 2026-05-04 05:14 | 26.07556 | -80.14036 | 15 ft | 5 kts | 90° |
| 2026-05-04 05:14 | 26.07543 | -80.14000 | 16 ft | 6 kts | 135° |
| 2026-05-04 05:14 | 26.07491 | -80.13951 | 16 ft | 11 kts | 113° |
| 2026-05-04 05:15 | 26.07474 | -80.13870 | 17 ft | 11 kts | 101° |
| 2026-05-04 05:15 | 26.07469 | -80.13789 | 15 ft | 10 kts | 90° |
| 2026-05-04 05:15 | 26.07439 | -80.13733 | 15 ft | 10 kts | 172° |
| 2026-05-04 05:15 | 26.07383 | -80.13764 | 15 ft | 10 kts | 247° |
| 2026-05-04 05:16 | 26.07369 | -80.13798 | 16 ft | 0 kts | 246° |
| 2026-05-04 05:16 | 26.07369 | -80.13799 | 16 ft | 0 kts | 246° |